Terminal Aerodrome Forecast
Issued by NWS Wichita, KS

Home | Current Version | Previous Version | Graphics & Text | Print | Product List | Glossary On
Versions: 1 2 3 4 5 6 7 8 9 10 11 12 13 14 15 16 17 18 19 20 21 22 23 24 25 26 27 28 29 30
000
FTUS43 KICT 201459 AAC
TAFICT
TAF AMD
KICT 201459Z 2015/2112 18008KT P6SM FEW020 BKN200
      TEMPO 2015/2017 4SM BR
     FM201700 19009KT P6SM SCT025
     FM210400 18009KT P6SM OVC015
     FM210900 18009KT 4SM BR OVC007=

USA.gov is the U.S. government's official web portal to all federal, state and local government web resources and services.